SBFL/FLN METAR and TAF weather

Enter ICAO airport designator
Station Type Date Time Source
SBFL METAR 2021/10/20 07:00 UTC NOAA

SBFL 200700Z 20005KT 9999 BKN040 17/13 Q1020


Station Type Date Time Source
SBFL Decoded METAR 2021/10/20 07:00 UTC NOAA

Florianopolis Aeroporto , Brazil (SBFL) 27-40S 048-33W 5M
Oct 20, 2021 - 03:00 AM EDT / 2021.10.20 0700 UTC
Wind: from the SSW (200 degrees) at 6 MPH (5 KT):0
Visibility: greater than 7 mile(s):0
Sky conditions: mostly cloudy
Temperature: 62 F (17 C)
Dew Point: 55 F (13 C)
Relative Humidity: 77%
Pressure (altimeter): 30.12 in. Hg (1020 hPa)
ob: SBFL 200700Z 20005KT 9999 BKN040 17/13 Q1020
cycle: 7

Station Type Date Time Source
SBFL TAF 2021/10/20 06:59 UTC NOAA

TAF SBFL 200300Z 2006/2106 12009KT 7000 -RA SCT010 BKN022 TN15/2007Z TX21/2017Z
BECMG 2009/2011 12010KT 9999 NSW SCT020 BKN040 PROB40
TEMPO 2018/2023 7000 -RA BKN013
BECMG 2023/2101 11007KT BKN015
BECMG 2103/2105 21005KT BKN020
RMK PEJ

Example: see airport list